Island Supplier — WCZ2444 — position and weather

sailwx.info

Track history (hours):
 
Tides and Currents Weather Stations Pressure Air Temp Water Temp Dewpoint Dewpoint Depression Visibility Wind Speed Wind Dir Waves Ship Positions

Island Supplier

Owner: Santa Catalina Island Resort Services, Inc., AVALON, CA. More information available from US FCC via Universal Licensing System and Coast Guard Vessel Documentation Center.

Last reported at 2015-Jul-02 18:20 UTC. Time now 2015-Jul-02 21:34 UTC.
Position N 33°29' W 118°37'.

Length 22 m; draft 1 m.

Type: Cargo ship. MMSI: 366765690.

Date/timePositionNaut miles runAvg speedWind from/ knotsBaromVisibWave heightAir tempDewpointWater temp
2015-Jul-02 18:20N 33°29' W 118°37'7 6.8
2015-Jul-02 17:20N 33°33' W 118°30'5 6.2
2015-Jul-02 16:32N 33°36' W 118°25'6 5.5
2015-Jul-02 15:24N 33°40' W 118°19'5 4.6
2015-Jul-02 14:22N 33°44' W 118°16'1 0.0
2015-Jul-01 14:33N 33°45' W 118°16'0 0.0
2015-Jul-01 13:33N 33°45' W 118°16'4 3.9
2015-Jul-01 12:33N 33°41' W 118°16'7 6.9
2015-Jul-01 11:33N 33°36' W 118°21'8 6.7
2015-Jul-01 10:25N 33°30' W 118°27'  
2015-Jun-26 19:07N 33°29' W 118°37'12 7.0
2015-Jun-26 17:27N 33°36' W 118°26'6 6.7
2015-Jun-26 16:33N 33°39' W 118°20'6 1.5
2015-Jun-26 12:33N 33°45' W 118°16'3 3.3
2015-Jun-26 11:33N 33°42' W 118°16'7 7.4
2015-Jun-26 10:33N 33°36' W 118°21'7 7.2
2015-Jun-26 09:33N 33°30' W 118°26'8 0.5
2015-Jun-25 17:06N 33°29' W 118°36'4 7.0
2015-Jun-25 16:34N 33°31' W 118°33'19 6.1
2015-Jun-25 13:27N 33°44' W 118°17'0 0.0
2015-Jun-24 14:23N 33°45' W 118°16'0 0.0
2015-Jun-24 13:18N 33°45' W 118°16'5 5.4
2015-Jun-24 12:21N 33°40' W 118°17'  
Track history (hours):
 
Tides and Currents Weather Stations Pressure Air Temp Water Temp Dewpoint Dewpoint Depression Visibility Wind Speed Wind Dir Waves Ship Positions

Island Supplier

Owner: Santa Catalina Island Resort Services, Inc., AVALON, CA. More information available from US FCC via Universal Licensing System and Coast Guard Vessel Documentation Center.

Last reported at 2015-Jul-02 18:20 UTC. Time now 2015-Jul-02 21:34 UTC.
Position N 33°29' W 118°37'.

Length 22 m; draft 1 m.

Type: Cargo ship. MMSI: 366765690.

Date/timePositionNaut miles runAvg speedWind from/ knotsBaromVisibWave heightAir tempDewpointWater temp
2015-Jul-02 18:20N 33°29' W 118°37'7 6.8
2015-Jul-02 17:20N 33°33' W 118°30'5 6.2
2015-Jul-02 16:32N 33°36' W 118°25'6 5.5
2015-Jul-02 15:24N 33°40' W 118°19'5 4.6
2015-Jul-02 14:22N 33°44' W 118°16'1 0.0
2015-Jul-01 14:33N 33°45' W 118°16'0 0.0
2015-Jul-01 13:33N 33°45' W 118°16'4 3.9
2015-Jul-01 12:33N 33°41' W 118°16'7 6.9
2015-Jul-01 11:33N 33°36' W 118°21'8 6.7
2015-Jul-01 10:25N 33°30' W 118°27'  
2015-Jun-26 19:07N 33°29' W 118°37'12 7.0
2015-Jun-26 17:27N 33°36' W 118°26'6 6.7
2015-Jun-26 16:33N 33°39' W 118°20'6 1.5
2015-Jun-26 12:33N 33°45' W 118°16'3 3.3
2015-Jun-26 11:33N 33°42' W 118°16'7 7.4
2015-Jun-26 10:33N 33°36' W 118°21'7 7.2
2015-Jun-26 09:33N 33°30' W 118°26'8 0.5
2015-Jun-25 17:06N 33°29' W 118°36'4 7.0
2015-Jun-25 16:34N 33°31' W 118°33'19 6.1
2015-Jun-25 13:27N 33°44' W 118°17'0 0.0
2015-Jun-24 14:23N 33°45' W 118°16'0 0.0
2015-Jun-24 13:18N 33°45' W 118°16'5 5.4
2015-Jun-24 12:21N 33°40' W 118°17'  

Dump ship's entire track history